Map

Track Data

SID SEASON NUMBER BASIN SUBBASIN NAME ISO_TIME NATURE LAT LON WMO_WIND WMO_PRES WMO_AGENCY TRACK_TYPE DIST2LAND LANDFALL IFLAG USA_AGENCY USA_ATCF_ID USA_LAT USA_LON USA_RECORD USA_STATUS USA_WIND USA_PRES USA_SSHS USA_R34_NE USA_R34_SE USA_R34_SW USA_R34_NW USA_R50_NE USA_R50_SE USA_R50_SW USA_R50_NW USA_R64_NE USA_R64_SE USA_R64_SW USA_R64_NW USA_POCI USA_ROCI USA_RMW USA_EYE TOKYO_LAT TOKYO_LON TOKYO_GRADE TOKYO_WIND TOKYO_PRES TOKYO_R50_DIR TOKYO_R50_LONG TOKYO_R50_SHORT TOKYO_R30_DIR TOKYO_R30_LONG TOKYO_R30_SHORT TOKYO_LAND CMA_LAT CMA_LON CMA_CAT CMA_WIND CMA_PRES HKO_LAT HKO_LON HKO_CAT HKO_WIND HKO_PRES NEWDELHI_LAT NEWDELHI_LON NEWDELHI_GRADE NEWDELHI_WIND NEWDELHI_PRES NEWDELHI_CI NEWDELHI_DP NEWDELHI_POCI REUNION_LAT REUNION_LON REUNION_TYPE REUNION_WIND REUNION_PRES REUNION_TNUM REUNION_CI REUNION_RMW REUNION_R34_NE REUNION_R34_SE REUNION_R34_SW REUNION_R34_NW REUNION_R50_NE REUNION_R50_SE REUNION_R50_SW REUNION_R50_NW REUNION_R64_NE REUNION_R64_SE REUNION_R64_SW REUNION_R64_NW BOM_LAT BOM_LON BOM_TYPE BOM_WIND BOM_PRES BOM_TNUM BOM_CI BOM_RMW BOM_R34_NE BOM_R34_SE BOM_R34_SW BOM_R34_NW BOM_R50_NE BOM_R50_SE BOM_R50_SW BOM_R50_NW BOM_R64_NE BOM_R64_SE BOM_R64_SW BOM_R64_NW BOM_ROCI BOM_POCI BOM_EYE BOM_POS_METHOD BOM_PRES_METHOD NADI_LAT NADI_LON NADI_CAT NADI_WIND NADI_PRES WELLINGTON_LAT WELLINGTON_LON WELLINGTON_WIND WELLINGTON_PRES DS824_LAT DS824_LON DS824_STAGE DS824_WIND DS824_PRES TD9636_LAT TD9636_LON TD9636_STAGE TD9636_WIND TD9636_PRES TD9635_LAT TD9635_LON TD9635_WIND TD9635_PRES TD9635_ROCI NEUMANN_LAT NEUMANN_LON NEUMANN_CLASS NEUMANN_WIND NEUMANN_PRES MLC_LAT MLC_LON MLC_CLASS MLC_WIND MLC_PRES USA_GUST BOM_GUST BOM_GUST_PER REUNION_GUST REUNION_GUST_PER USA_SEAHGT USA_SEARAD_NE USA_SEARAD_SE USA_SEARAD_SW USA_SEARAD_NW STORM_SPEED STORM_DIR
1929268N32294 1929 61 NA NA NOT_NAMED 1929-09-25 00:00:00 TS 32.0000 -66.5000 30 hurdat_atl main 930 903 O_____________ hurdat_atl AL031929 32.0000 -66.5000 TD 30 -1 7 320
1929268N32294 1929 61 NA NA NOT_NAMED 1929-09-25 03:00:00 TS 32.2501 -66.7497 main 897 862 P_____________ AL031929 32.2501 -66.7497 TD 30 -1 7 320
1929268N32294 1929 61 NA NA NOT_NAMED 1929-09-25 06:00:00 TS 32.5000 -67.0000 30 hurdat_atl main 862 835 O_____________ hurdat_atl AL031929 32.5000 -67.0000 TD 30 -1 7 320
1929268N32294 1929 61 NA NA NOT_NAMED 1929-09-25 09:00:00 TS 32.7499 -67.2501 main 827 795 P_____________ AL031929 32.7499 -67.2501 TD 32 -1 7 320
1929268N32294 1929 61 NA NA NOT_NAMED 1929-09-25 12:00:00 TS 33.0000 -67.5000 35 1005 hurdat_atl main 795 769 O_____________ hurdat_atl AL031929 33.0000 -67.5000 TS 35 1005 0 7 320
1929268N32294 1929 61 NA NA NOT_NAMED 1929-09-25 15:00:00 TS 33.2499 -67.7501 main 761 730 P_____________ AL031929 33.2500 -67.7501 TS 37 0 7 320
1929268N32294 1929 61 NA NA NOT_NAMED 1929-09-25 18:00:00 TS 33.5000 -68.0000 40 hurdat_atl main 730 696 O_____________ hurdat_atl AL031929 33.5000 -68.0000 TS 40 0 6 318
1929268N32294 1929 61 NA NA NOT_NAMED 1929-09-25 21:00:00 TS 33.7350 -68.2651 main 696 667 P_____________ AL031929 33.7350 -68.2651 TS 42 0 7 320
1929268N32294 1929 61 NA NA NOT_NAMED 1929-09-26 00:00:00 TS 34.0000 -68.5000 45 hurdat_atl main 667 639 O_____________ hurdat_atl AL031929 34.0000 -68.5000 TS 45 0 7 330
1929268N32294 1929 61 NA NA NOT_NAMED 1929-09-26 03:00:00 TS 34.3274 -68.6726 main 639 619 P_____________ AL031929 34.3274 -68.6726 TS 47 0 7 341
1929268N32294 1929 61 NA NA NOT_NAMED 1929-09-26 06:00:00 TS 34.7000 -68.8000 50 hurdat_atl main 619 601 O_____________ hurdat_atl AL031929 34.7000 -68.8000 TS 50 0 8 346
1929268N32294 1929 61 NA NA NOT_NAMED 1929-09-26 09:00:00 TS 35.1000 -68.9150 main 601 586 P_____________ AL031929 35.1000 -68.9150 TS 50 0 8 348
1929268N32294 1929 61 NA NA NOT_NAMED 1929-09-26 12:00:00 TS 35.5000 -69.0000 50 hurdat_atl main 586 575 O_____________ hurdat_atl AL031929 35.5000 -69.0000 TS 50 0 8 351
1929268N32294 1929 61 NA NA NOT_NAMED 1929-09-26 15:00:00 TS 35.8500 -69.0725 main 575 575 P_____________ AL031929 35.8500 -69.0725 TS 50 0 7 354
1929268N32294 1929 61 NA NA NOT_NAMED 1929-09-26 18:00:00 TS 36.2000 -69.1000 50 hurdat_atl main 575 556 O_____________ hurdat_atl AL031929 36.2000 -69.1000 TS 50 0 7 0
1929268N32294 1929 61 NA NA NOT_NAMED 1929-09-26 21:00:00 TS 36.5850 -69.0799 main 556 521 P_____________ AL031929 36.5850 -69.0799 TS 50 0 8 6
1929268N32294 1929 61 NA NA NOT_NAMED 1929-09-27 00:00:00 TS 37.0000 -69.0000 50 hurdat_atl main 521 481 O_____________ hurdat_atl AL031929 37.0000 -69.0000 TS 50 0 9 10
1929268N32294 1929 61 NA NA NOT_NAMED 1929-09-27 03:00:00 TS 37.4424 -68.8946 main 481 435 P_____________ AL031929 37.4424 -68.8946 TS 50 0 9 15
1929268N32294 1929 61 NA NA NOT_NAMED 1929-09-27 06:00:00 ET 37.9000 -68.7000 50 hurdat_atl main 435 399 O_____________ hurdat_atl AL031929 37.9000 -68.7000 EX 50 -4 10 23
1929268N32294 1929 61 NA NA NOT_NAMED 1929-09-27 09:00:00 ET 38.3650 -68.3951 main 391 364 P_____________ AL031929 38.3650 -68.3951 EX 50 -4 11 31
1929268N32294 1929 61 NA NA NOT_NAMED 1929-09-27 12:00:00 ET 38.8000 -68.0000 50 hurdat_atl main 364 344 O_____________ hurdat_atl AL031929 38.8000 -68.0000 EX 50 -4 10 38
1929268N32294 1929 61 NA NA NOT_NAMED 1929-09-27 15:00:00 ET 39.1724 -67.5721 main 344 339 P_____________ AL031929 39.1724 -67.5721 EX 50 -4 10 45
1929268N32294 1929 61 NA NA NOT_NAMED 1929-09-27 18:00:00 ET 39.5000 -67.1000 50 hurdat_atl main 345 342 O_____________ hurdat_atl AL031929 39.5000 -67.1000 EX 50 -4 10 49
1929268N32294 1929 61 NA NA NOT_NAMED 1929-09-27 21:00:00 ET 39.8073 -66.6144 main 355 355 P_____________ AL031929 39.8073 -66.6144 EX 50 -4 10 52
1929268N32294 1929 61 NA NA NOT_NAMED 1929-09-28 00:00:00 ET 40.1000 -66.1000 50 hurdat_atl main 372 344 O_____________ hurdat_atl AL031929 40.1000 -66.1000 EX 50 -4 10 53
1929268N32294 1929 61 NA NA NOT_NAMED 1929-09-28 03:00:00 ET 40.3996 -65.5719 main 344 311 P_____________ AL031929 40.3996 -65.5719 EX 50 -4 10 54
1929268N32294 1929 61 NA NA NOT_NAMED 1929-09-28 06:00:00 ET 40.7000 -65.0000 50 hurdat_atl main 312 285 O_____________ hurdat_atl AL031929 40.7000 -65.0000 EX 50 -4 11 56
1929268N32294 1929 61 NA NA NOT_NAMED 1929-09-28 09:00:00 ET 40.9992 -64.4016 main 287 273 P_____________ AL031929 40.9992 -64.4016 EX 50 -4 11 59
1929268N32294 1929 61 NA NA NOT_NAMED 1929-09-28 12:00:00 ET 41.3000 -63.7000 50 hurdat_atl main 277 275 O_____________ hurdat_atl AL031929 41.3000 -63.7000 EX 50 -4 13 63
1929268N32294 1929 61 NA NA NOT_NAMED 1929-09-28 15:00:00 ET 41.5914 -62.8811 main 288 288 P_____________ AL031929 41.5914 -62.8811 EX 50 -4 15 66
1929268N32294 1929 61 NA NA NOT_NAMED 1929-09-28 18:00:00 ET 41.9000 -61.9000 50 hurdat_atl main 310 307 O_____________ hurdat_atl AL031929 41.9000 -61.9000 EX 50 -4 17 67
1929268N32294 1929 61 NA NA NOT_NAMED 1929-09-28 21:00:00 ET 42.2396 -60.8256 main 319 309 P_____________ AL031929 42.2396 -60.8256 EX 50 -4 19 68
1929268N32294 1929 61 NA NA NOT_NAMED 1929-09-29 00:00:00 ET 42.6000 -59.5000 50 hurdat_atl main 315 312 O_____________ hurdat_atl AL031929 42.6000 -59.5000 EX 50 -4 23 72
1929268N32294 1929 61 NA NA NOT_NAMED 1929-09-29 03:00:00 ET 42.9470 -57.9050 main 359 354 P_____________ AL031929 42.9470 -57.9050 EX 47 -4 26 75
1929268N32294 1929 61 NA NA NOT_NAMED 1929-09-29 06:00:00 ET 43.3000 -56.0000 45 hurdat_atl main 389 334 O_____________ hurdat_atl AL031929 43.3000 -56.0000 EX 45 -4 30 77
1929268N32294 1929 61 NA NA NOT_NAMED 1929-09-29 09:00:00 ET 43.6400 -53.8589 main 334 306 P_____________ AL031929 43.6400 -53.8589 EX 42 -4 33 78
1929268N32294 1929 61 NA NA NOT_NAMED 1929-09-29 12:00:00 ET 44.0000 -51.5000 40 hurdat_atl main 317 317 O_____________ hurdat_atl AL031929 44.0000 -51.5000 EX 40 -4 35 78
1929268N32294 1929 61 NA NA NOT_NAMED 1929-09-29 15:00:00 ET 44.4005 -49.0335 main 407 407 P_____________ AL031929 44.4005 -49.0335 EX 37 -4 36 77
1929268N32294 1929 61 NA NA NOT_NAMED 1929-09-29 18:00:00 ET 44.8000 -46.5000 35 hurdat_atl main 548 O_____________ hurdat_atl AL031929 44.8000 -46.5000 EX 35 -4 37 77

About IBTrACS Database

This database is a web-friendly format of International Best Track Archive for Climate Stewardship (IBTrACS), a global best track data archive curated by NOAA dating back to 1842.

Updated: 2021-10-21